createdAt,value
2023-03-08T00:01:22.256Z,143527.66
2023-03-08T00:03:54.396Z,143563.84
2023-03-08T00:06:22.141Z,143516.75
2023-03-08T00:08:49.441Z,143502.28
2023-03-08T00:11:16.646Z,143495.06
2023-03-08T00:13:43.644Z,143504.72
2023-03-08T00:16:13.853Z,143491.44
2023-03-08T00:18:41.082Z,143287.56
2023-03-08T00:21:12.046Z,143497.47
2023-03-08T00:23:39.675Z,143409.41
2023-03-08T00:26:07.137Z,143491.44
2023-03-08T00:28:34.534Z,143498.66
2023-03-08T00:31:07.088Z,143484.19
2023-03-08T00:33:35.158Z,143507.09
2023-03-08T00:36:07.862Z,143497.47
2023-03-08T00:38:37.142Z,143514.38
2023-03-08T00:41:04.590Z,143495.06
2023-03-08T00:43:33.355Z,143492.63
2023-03-08T00:46:04.834Z,143493.81
2023-03-08T00:48:31.991Z,143545.75
2023-03-08T00:50:59.046Z,143543.31
2023-03-08T00:53:26.231Z,143499.91
2023-03-08T00:55:55.812Z,143563.84
2023-03-08T00:58:25.156Z,143519.19
2023-03-08T01:00:52.406Z,143504.72
2023-03-08T01:03:21.715Z,143538.50
2023-03-08T01:05:52.170Z,143531.28
2023-03-08T01:08:20.143Z,143520.38
2023-03-08T01:10:56.843Z,143502.28
2023-03-08T01:13:29.631Z,143518.00
2023-03-08T01:15:57.017Z,143508.34
2023-03-08T01:18:24.157Z,143497.47
2023-03-08T01:20:59.951Z,143483.00
2023-03-08T01:23:27.297Z,143399.75
2023-03-08T01:25:59.318Z,143474.53
2023-03-08T01:28:26.432Z,143462.44
2023-03-08T01:30:54.007Z,143473.34
2023-03-08T01:33:21.310Z,143398.50
2023-03-08T01:35:50.235Z,143451.63
2023-03-08T01:38:17.279Z,143476.97
2023-03-08T01:40:44.286Z,143466.09
2023-03-08T01:43:22.822Z,143466.09
2023-03-08T01:46:21.540Z,143463.69
2023-03-08T01:49:05.607Z,143435.94
2023-03-08T01:51:43.650Z,143381.66
2023-03-08T01:54:35.406Z,143456.44
2023-03-08T01:57:06.430Z,143461.25
2023-03-08T01:59:34.648Z,143451.63
2023-03-08T02:02:05.230Z,143437.13
2023-03-08T02:04:34.590Z,143458.88
2023-03-08T02:07:01.873Z,143449.19
2023-03-08T02:09:29.015Z,143441.97
2023-03-08T02:12:00.955Z,143462.44
2023-03-08T02:14:28.859Z,143416.59
2023-03-08T02:16:56.575Z,143469.72
2023-03-08T02:19:38.992Z,143461.25
2023-03-08T02:22:14.689Z,143432.31
2023-03-08T02:24:42.211Z,143449.19
2023-03-08T02:27:20.302Z,143439.53
2023-03-08T02:29:47.815Z,143431.06
2023-03-08T02:32:16.683Z,143432.31
2023-03-08T02:34:43.818Z,143446.78
2023-03-08T02:37:12.781Z,143434.72
2023-03-08T02:39:39.786Z,143437.13
2023-03-08T02:42:07.001Z,143396.13
2023-03-08T02:44:35.459Z,143415.41
2023-03-08T02:47:02.508Z,143405.78
2023-03-08T02:49:29.859Z,143425.06
2023-03-08T02:51:57.622Z,143409.41
2023-03-08T02:54:24.626Z,143429.88
2023-03-08T02:56:51.685Z,143415.41
2023-03-08T02:59:18.811Z,143425.06
2023-03-08T03:01:45.908Z,143411.78
2023-03-08T03:04:12.920Z,143392.50
2023-03-08T03:06:39.897Z,143415.41
2023-03-08T03:09:09.249Z,143412.97
2023-03-08T03:11:36.842Z,143416.59
2023-03-08T03:14:03.861Z,143364.75
2023-03-08T03:16:36.806Z,143427.50
2023-03-08T03:19:04.193Z,143428.69
2023-03-08T03:21:31.449Z,143420.25
2023-03-08T03:23:58.790Z,143432.31
2023-03-08T03:26:33.809Z,143437.13
2023-03-08T03:29:00.809Z,143433.50
2023-03-08T03:31:32.563Z,143416.59
2023-03-08T03:34:00.920Z,143443.16
2023-03-08T03:36:28.505Z,143361.13
2023-03-08T03:38:55.740Z,143432.31
2023-03-08T03:41:23.761Z,143364.75
2023-03-08T03:43:59.900Z,143431.06
2023-03-08T03:46:27.090Z,143420.25
2023-03-08T03:48:56.825Z,143427.50
2023-03-08T03:51:26.040Z,143422.66
2023-03-08T03:54:05.878Z,143420.25
2023-03-08T03:56:34.167Z,143437.13
2023-03-08T03:59:01.305Z,143408.16
2023-03-08T04:01:30.736Z,143428.69
2023-03-08T04:04:09.202Z,143420.25
2023-03-08T04:06:38.688Z,143422.66
2023-03-08T04:09:08.712Z,143427.50
2023-03-08T04:11:39.548Z,143403.34
2023-03-08T04:14:10.411Z,143403.34
2023-03-08T04:16:39.763Z,143415.41
2023-03-08T04:19:13.901Z,143350.28
2023-03-08T04:21:47.846Z,143429.88
2023-03-08T04:24:17.258Z,143447.97
2023-03-08T04:26:47.120Z,143446.78
2023-03-08T04:29:17.819Z,143387.66
2023-03-08T04:31:44.955Z,143417.84
2023-03-08T04:34:15.652Z,143425.06
2023-03-08T04:36:44.807Z,143393.69
2023-03-08T04:39:11.946Z,143408.16
2023-03-08T04:41:39.293Z,143423.88
2023-03-08T04:44:26.571Z,143416.59
2023-03-08T04:46:54.032Z,143406.97
2023-03-08T04:49:30.968Z,143321.31
2023-03-08T04:52:01.439Z,143421.44
2023-03-08T04:54:29.404Z,143416.59
2023-03-08T04:57:06.107Z,143400.94
2023-03-08T04:59:34.907Z,143394.88
2023-03-08T05:02:04.173Z,143403.34
2023-03-08T05:04:33.670Z,143393.69
2023-03-08T05:07:00.885Z,143409.41
2023-03-08T05:09:31.554Z,143403.34
2023-03-08T05:11:59.311Z,143403.34
2023-03-08T05:14:33.643Z,143403.34
2023-03-08T05:17:02.490Z,143388.88
2023-03-08T05:19:30.244Z,143386.47
2023-03-08T05:21:57.319Z,143410.59
2023-03-08T05:24:24.341Z,143403.34
2023-03-08T05:26:51.660Z,143405.78
2023-03-08T05:29:19.147Z,143402.13
2023-03-08T05:31:46.637Z,143408.16
2023-03-08T05:34:15.073Z,143367.16
2023-03-08T05:36:46.302Z,143410.59
2023-03-08T05:39:13.284Z,143367.16
2023-03-08T05:41:51.103Z,143376.78
2023-03-08T05:44:24.423Z,143374.41
2023-03-08T05:46:52.177Z,143376.78
2023-03-08T05:49:20.458Z,143387.66
2023-03-08T05:51:47.536Z,143359.94
2023-03-08T05:54:15.356Z,143400.94
2023-03-08T05:56:44.309Z,143384.03
2023-03-08T05:59:21.660Z,143359.94
2023-03-08T06:01:49.553Z,143376.78
2023-03-08T06:04:31.053Z,143374.41
2023-03-08T06:06:58.707Z,143350.28
2023-03-08T06:09:30.846Z,143367.16
2023-03-08T06:11:57.941Z,143384.03
2023-03-08T06:14:25.103Z,143375.59
2023-03-08T06:16:52.817Z,143375.59
2023-03-08T06:19:23.633Z,143394.88
2023-03-08T06:21:52.817Z,143391.31
2023-03-08T06:24:19.900Z,143399.75
2023-03-08T06:26:47.003Z,143405.78
2023-03-08T06:29:15.827Z,143386.47
2023-03-08T06:31:43.380Z,143409.41
2023-03-08T06:34:12.673Z,143394.88
2023-03-08T06:36:40.344Z,143374.41
2023-03-08T06:39:07.543Z,143384.03
2023-03-08T06:41:36.068Z,143388.88
2023-03-08T06:44:04.894Z,143400.94
2023-03-08T06:46:31.987Z,143425.06
2023-03-08T06:49:00.238Z,143438.34
2023-03-08T06:51:27.575Z,143417.84
2023-03-08T06:53:54.610Z,143451.63
2023-03-08T06:56:26.492Z,143454.03
2023-03-08T06:58:53.695Z,143350.28
2023-03-08T07:01:20.706Z,143433.50
2023-03-08T07:03:48.748Z,143473.34
2023-03-08T07:06:15.798Z,143434.72
2023-03-08T07:08:42.958Z,143393.69
2023-03-08T07:11:10.885Z,143450.41
2023-03-08T07:13:38.428Z,143451.63
2023-03-08T07:16:10.661Z,143400.94
2023-03-08T07:18:38.084Z,143433.50
2023-03-08T07:21:05.776Z,143437.13
2023-03-08T07:23:33.174Z,143425.06
2023-03-08T07:26:04.465Z,143374.41
2023-03-08T07:28:31.524Z,143421.44
2023-03-08T07:30:58.486Z,143432.31
2023-03-08T07:33:25.590Z,143434.72
2023-03-08T07:35:52.652Z,143458.88
2023-03-08T07:38:19.794Z,143308.03
2023-03-08T07:40:54.447Z,143495.06
2023-03-08T07:43:21.528Z,143444.34
2023-03-08T07:45:55.293Z,143491.44
2023-03-08T07:48:22.283Z,143458.88
2023-03-08T07:50:49.359Z,143458.88
2023-03-08T07:53:16.341Z,143438.34
2023-03-08T07:55:43.537Z,143473.34
2023-03-08T07:58:10.565Z,143462.44
2023-03-08T08:00:37.532Z,143493.81
2023-03-08T08:03:04.562Z,143481.78
2023-03-08T08:05:31.631Z,143492.63
2023-03-08T08:07:58.917Z,143489.00
2023-03-08T08:10:25.914Z,143483.00
2023-03-08T08:12:52.971Z,143470.91
2023-03-08T08:15:20.854Z,143507.09
2023-03-08T08:17:47.936Z,143514.38
2023-03-08T08:20:14.904Z,143499.91
2023-03-08T08:22:41.854Z,143485.38
2023-03-08T08:25:09.309Z,143470.91
2023-03-08T08:27:36.425Z,143490.25
2023-03-08T08:30:05.045Z,143492.63
2023-03-08T08:32:34.296Z,143538.50
2023-03-08T08:35:01.430Z,143489.00
2023-03-08T08:37:30.293Z,143569.88
2023-03-08T08:39:57.365Z,143596.44
2023-03-08T08:42:24.869Z,143589.19
2023-03-08T08:44:55.193Z,143613.34
2023-03-08T08:47:22.169Z,143574.69
2023-03-08T08:49:49.143Z,143598.88
2023-03-08T08:52:16.127Z,143587.97
2023-03-08T08:54:43.176Z,143610.91
2023-03-08T08:57:10.192Z,143603.69
2023-03-08T08:59:37.774Z,143589.19
2023-03-08T09:02:05.572Z,143577.13
2023-03-08T09:04:32.663Z,143589.19
2023-03-08T09:06:59.814Z,143649.56
2023-03-08T09:09:27.029Z,143693.00
2023-03-08T09:11:55.801Z,143740.13
2023-03-08T09:14:24.217Z,143769.09
2023-03-08T09:16:52.529Z,143799.31
2023-03-08T09:19:19.851Z,143784.84
2023-03-08T09:21:47.006Z,143811.38
2023-03-08T09:24:14.141Z,143828.28
2023-03-08T09:26:41.264Z,143818.63
2023-03-08T09:29:08.284Z,143786.03
2023-03-08T09:31:37.324Z,143821.06
2023-03-08T09:34:08.558Z,143811.38
2023-03-08T09:36:36.767Z,143794.50
2023-03-08T09:39:04.080Z,143798.13
2023-03-08T09:41:57.097Z,143833.13
2023-03-08T09:44:49.145Z,143830.72
2023-03-08T09:47:34.727Z,143852.47
2023-03-08T09:50:15.769Z,143808.97
2023-03-08T09:52:50.431Z,143906.84
2023-03-08T09:55:30.037Z,143893.56
2023-03-08T09:58:01.871Z,143947.94
2023-03-08T10:00:32.692Z,143991.44
2023-03-08T10:03:19.641Z,143951.53
2023-03-08T10:06:30.417Z,144016.84
2023-03-08T10:09:20.789Z,144036.16
2023-03-08T10:11:59.791Z,144045.81
2023-03-08T10:14:32.568Z,144041.00
2023-03-08T10:17:05.449Z,144051.91
2023-03-08T10:19:46.493Z,144086.94
2023-03-08T10:22:22.733Z,144076.06
2023-03-08T10:25:05.055Z,144068.78
2023-03-08T10:27:34.874Z,144057.94
2023-03-08T10:30:13.880Z,144072.44
2023-03-08T10:32:46.412Z,144074.88
2023-03-08T10:35:13.458Z,144089.38
2023-03-08T10:37:40.414Z,144038.59
2023-03-08T10:40:16.133Z,144031.34
2023-03-08T10:42:53.772Z,144079.72
2023-03-08T10:45:22.408Z,144066.41
2023-03-08T10:48:04.217Z,144065.16
2023-03-08T10:50:35.358Z,144010.75
2023-03-08T10:53:18.147Z,143978.13
2023-03-08T10:55:46.441Z,143987.78
2023-03-08T10:58:35.169Z,143968.47
2023-03-08T11:01:06.118Z,143987.78
2023-03-08T11:03:34.055Z,143946.69
2023-03-08T11:06:13.167Z,144070.03
2023-03-08T11:08:51.490Z,144077.28
2023-03-08T11:11:18.617Z,144236.91
2023-03-08T11:13:47.858Z,144123.22
2023-03-08T11:16:45.636Z,144199.41
2023-03-08T11:19:34.410Z,144112.34
2023-03-08T11:22:05.446Z,144250.22
2023-03-08T11:37:50.436Z,144238.16
2023-03-08T11:40:43.568Z,144307.09
2023-03-08T11:43:31.220Z,144326.44
2023-03-08T11:46:11.400Z,144263.53
2023-03-08T11:48:47.265Z,144252.66
2023-03-08T11:51:25.472Z,144200.63
2023-03-08T11:54:04.632Z,144218.75
2023-03-08T11:56:44.067Z,144281.66
2023-03-08T11:59:37.593Z,144308.28
2023-03-08T12:02:07.460Z,144343.41
2023-03-08T12:04:42.869Z,144319.16
2023-03-08T12:07:17.984Z,144305.91
2023-03-08T12:09:57.376Z,144240.53
2023-03-08T12:15:47.310Z,144274.44
2023-03-08T12:18:43.930Z,143767.91
2023-03-08T12:21:19.940Z,144276.84
2023-03-08T12:24:08.709Z,144256.28
2023-03-08T12:26:41.417Z,144224.84
2023-03-08T12:29:16.106Z,144309.50
2023-03-08T12:31:47.730Z,144347.03
2023-03-08T12:34:39.554Z,144345.78
2023-03-08T12:37:28.757Z,144258.69
2023-03-08T12:40:26.214Z,144428.09
2023-03-08T12:43:05.063Z,144413.56
2023-03-08T12:45:32.539Z,144386.94
2023-03-08T12:48:05.441Z,144420.84
2023-03-08T12:51:16.714Z,144372.44
2023-03-08T12:53:49.895Z,144357.91
2023-03-08T12:56:24.102Z,144351.88
2023-03-08T12:58:54.901Z,144362.75
2023-03-08T13:01:45.121Z,144326.44
2023-03-08T13:04:41.026Z,144357.91
2023-03-08T13:07:40.068Z,144393.03
2023-03-08T13:10:23.230Z,144297.44
2023-03-08T13:13:08.913Z,144386.94
2023-03-08T13:15:39.902Z,144377.25
2023-03-08T13:18:08.504Z,144343.41
2023-03-08T13:21:25.576Z,144332.47
2023-03-08T13:24:02.883Z,144299.81
2023-03-08T13:26:50.610Z,144294.97
2023-03-08T13:29:20.399Z,144317.97
2023-03-08T13:31:48.521Z,144275.63
2023-03-08T13:34:32.036Z,144284.13
2023-03-08T13:36:59.269Z,144221.19
2023-03-08T13:39:29.034Z,144201.84
2023-03-08T13:42:11.282Z,144207.88
2023-03-08T13:44:38.898Z,144194.56
2023-03-08T13:47:22.288Z,144192.13
2023-03-08T13:49:52.003Z,144193.38
2023-03-08T13:52:24.358Z,144207.88
2023-03-08T13:54:55.006Z,144250.22
2023-03-08T13:57:25.920Z,144224.84
2023-03-08T13:59:59.372Z,144232.06
2023-03-08T14:02:31.339Z,144222.41
2023-03-08T14:04:58.851Z,144192.13
2023-03-08T14:07:30.597Z,144188.53
2023-03-08T14:09:58.481Z,144193.38
2023-03-08T14:12:32.592Z,144135.31
2023-03-08T14:15:02.205Z,144165.56
2023-03-08T14:17:32.228Z,144198.22
2023-03-08T14:20:25.401Z,144216.38
2023-03-08T14:22:54.573Z,144299.81
2023-03-08T14:25:30.922Z,144297.44
2023-03-08T14:27:59.034Z,144305.91
2023-03-08T14:30:29.198Z,144287.75
2023-03-08T14:32:59.225Z,144285.31
2023-03-08T14:35:33.195Z,144261.13
2023-03-08T14:38:00.550Z,144246.56
2023-03-08T14:40:29.334Z,144267.16
2023-03-08T14:42:59.461Z,144263.53
2023-03-08T14:45:32.740Z,144265.97
2023-03-08T14:48:19.601Z,144264.72
2023-03-08T14:50:55.419Z,144267.16
2023-03-08T14:53:29.181Z,144297.44
2023-03-08T14:55:57.594Z,144206.69
2023-03-08T14:58:33.188Z,144161.94
2023-03-08T15:01:02.097Z,144265.97
2023-03-08T15:03:31.666Z,144217.56
2023-03-08T15:06:01.303Z,144227.22
2023-03-08T15:08:29.289Z,144198.22
2023-03-08T15:10:56.393Z,144207.88
2023-03-08T15:13:24.277Z,144141.34
2023-03-08T15:15:51.420Z,144142.59
2023-03-08T15:18:18.479Z,144091.78
2023-03-08T15:20:49.255Z,144140.16
2023-03-08T15:23:22.151Z,144031.34
2023-03-08T15:25:49.666Z,144094.22
2023-03-08T15:28:18.836Z,144089.38
2023-03-08T15:30:46.579Z,144088.19
2023-03-08T15:33:13.707Z,144079.72
2023-03-08T15:35:41.409Z,144084.53
2023-03-08T15:38:13.008Z,144079.72
2023-03-08T15:40:40.888Z,144072.44
2023-03-08T15:43:08.139Z,144084.53
2023-03-08T15:45:35.636Z,144028.91
2023-03-08T15:48:07.612Z,144074.88
2023-03-08T15:50:35.586Z,144089.38
2023-03-08T15:53:03.645Z,144074.88
2023-03-08T15:55:31.391Z,144062.78
2023-03-08T15:58:33.136Z,144050.66
2023-03-08T16:01:00.120Z,144034.97
2023-03-08T16:03:30.850Z,144038.59
2023-03-08T16:05:59.323Z,144019.22
2023-03-08T16:08:28.439Z,144020.47
2023-03-08T16:10:55.912Z,144015.63
2023-03-08T16:13:22.967Z,144007.16
2023-03-08T16:15:50.564Z,144002.34
2023-03-08T16:18:17.624Z,143975.75
2023-03-08T16:20:46.124Z,144003.53
2023-03-08T16:23:13.330Z,143982.97
2023-03-08T16:25:43.133Z,143972.09
2023-03-08T16:28:10.747Z,143995.06
2023-03-08T16:30:42.724Z,143997.50
2023-03-08T16:33:09.735Z,144004.72
2023-03-08T16:35:36.814Z,143999.91
2023-03-08T16:38:04.029Z,143970.91
2023-03-08T16:40:32.917Z,143961.25
2023-03-08T16:42:59.949Z,143995.06
2023-03-08T16:45:26.948Z,143992.63
2023-03-08T16:47:54.108Z,143978.13
2023-03-08T16:50:21.119Z,143956.38
2023-03-08T16:52:48.242Z,143975.75
2023-03-08T16:55:15.327Z,143964.84
2023-03-08T16:57:42.293Z,143950.34
2023-03-08T17:00:12.361Z,143952.78
2023-03-08T17:02:40.194Z,143963.63
2023-03-08T17:05:10.566Z,143958.81
2023-03-08T17:07:37.978Z,143949.13
2023-03-08T17:10:06.022Z,143944.31
2023-03-08T17:12:33.007Z,143946.69
2023-03-08T17:15:00.579Z,143888.75
2023-03-08T17:17:27.640Z,143939.47
2023-03-08T17:19:54.775Z,143931.00
2023-03-08T17:22:21.866Z,143934.66
2023-03-08T17:24:48.927Z,143879.03
2023-03-08T17:27:15.927Z,143929.81
2023-03-08T17:29:42.925Z,143939.47
2023-03-08T17:32:09.933Z,143941.88
2023-03-08T17:34:37.012Z,143929.81
2023-03-08T17:37:04.104Z,143920.13
2023-03-08T17:39:31.164Z,143923.75
2023-03-08T17:41:58.227Z,143922.56
2023-03-08T17:44:25.319Z,143922.56
2023-03-08T17:46:52.338Z,143933.41
2023-03-08T17:49:24.624Z,143945.50
2023-03-08T17:51:52.911Z,143937.03
2023-03-08T17:54:20.644Z,143939.47
2023-03-08T17:56:47.760Z,143941.88
2023-03-08T17:59:16.857Z,143918.91
2023-03-08T18:01:44.361Z,143934.66
2023-03-08T18:04:11.500Z,143920.13
2023-03-08T18:06:41.151Z,143934.66
2023-03-08T18:09:15.742Z,143922.56
2023-03-08T18:11:43.583Z,143937.03
2023-03-08T18:14:13.494Z,143934.66
2023-03-08T18:16:41.242Z,143920.13
2023-03-08T18:19:08.413Z,143937.03
2023-03-08T18:21:36.166Z,143915.28
2023-03-08T18:24:04.982Z,143910.44
2023-03-08T18:26:32.492Z,143893.56
2023-03-08T18:28:59.505Z,143900.78
2023-03-08T18:31:26.942Z,143908.06
2023-03-08T18:33:55.206Z,143911.69
2023-03-08T18:36:23.636Z,143917.72
2023-03-08T18:38:50.976Z,143915.28
2023-03-08T18:41:25.300Z,143928.56
2023-03-08T18:43:54.592Z,143937.03
2023-03-08T18:46:28.434Z,143877.84
2023-03-08T18:48:56.545Z,143953.97
2023-03-08T18:51:24.068Z,143939.47
2023-03-08T18:53:51.239Z,143953.97
2023-03-08T18:56:18.401Z,143929.81
2023-03-08T18:58:45.668Z,143951.53
2023-03-08T19:01:15.162Z,143921.34
2023-03-08T19:03:44.872Z,143922.56
2023-03-08T19:06:13.817Z,143910.44
2023-03-08T19:08:41.116Z,143885.09
2023-03-08T19:11:11.535Z,143899.59
2023-03-08T19:13:38.620Z,143893.56
2023-03-08T19:16:07.197Z,143898.41
2023-03-08T19:18:34.458Z,143932.22
2023-03-08T19:21:01.451Z,143905.63
2023-03-08T19:23:28.544Z,143910.44
2023-03-08T19:26:14.274Z,143894.75
2023-03-08T19:28:41.766Z,143891.13
2023-03-08T19:31:17.299Z,143916.53
2023-03-08T19:33:49.319Z,143885.09
2023-03-08T19:36:16.319Z,143900.78
2023-03-08T19:38:43.347Z,143858.50
2023-03-08T19:41:10.833Z,143903.22
2023-03-08T19:43:37.989Z,143852.47
2023-03-08T19:46:05.315Z,143931.00
2023-03-08T19:48:32.329Z,143917.72
2023-03-08T19:50:59.330Z,143925.00
2023-03-08T19:53:26.341Z,143929.81
2023-03-08T19:55:55.372Z,143938.25
2023-03-08T19:58:23.412Z,143923.75
2023-03-08T20:00:50.561Z,143910.44
2023-03-08T20:03:17.815Z,143911.69
2023-03-08T20:05:47.226Z,143904.41
2023-03-08T20:08:14.387Z,143874.19
2023-03-08T20:10:41.878Z,143876.63
2023-03-08T20:13:09.215Z,143886.31
2023-03-08T20:15:36.384Z,143920.13
2023-03-08T20:18:04.023Z,143946.69
2023-03-08T20:20:31.221Z,143949.13
2023-03-08T20:22:58.275Z,143921.34
2023-03-08T20:25:25.414Z,143921.34
2023-03-08T20:27:52.744Z,143905.63
2023-03-08T20:31:08.673Z,143905.63
2023-03-08T20:51:03.395Z,143946.69
2023-03-08T20:53:31.970Z,143905.63
2023-03-08T20:55:59.746Z,143937.03
2023-03-08T20:58:26.735Z,143946.69
2023-03-08T21:00:53.756Z,143932.22
2023-03-08T21:03:20.782Z,143938.25
2023-03-08T21:05:47.828Z,143975.75
2023-03-08T21:08:14.978Z,143920.13
2023-03-08T21:10:42.030Z,143981.78
2023-03-08T21:13:12.819Z,143978.13
2023-03-08T21:15:40.228Z,143956.38
2023-03-08T21:18:07.294Z,143992.63
2023-03-08T21:20:38.056Z,143986.59
2023-03-08T21:23:05.126Z,143995.06
2023-03-08T21:25:35.519Z,143987.78
2023-03-08T21:28:02.520Z,143982.97
2023-03-08T21:30:30.659Z,143980.56
2023-03-08T21:32:57.785Z,143963.63
2023-03-08T21:35:24.974Z,143937.03
2023-03-08T21:37:52.008Z,143964.84
2023-03-08T21:40:19.169Z,143968.47
2023-03-08T21:42:46.167Z,143973.31
2023-03-08T21:45:13.236Z,143995.06
2023-03-08T21:47:40.283Z,143968.47
2023-03-08T21:50:09.928Z,143980.56
2023-03-08T21:52:37.051Z,143972.09
2023-03-08T21:55:04.594Z,143961.25
2023-03-08T21:57:34.578Z,143960.00
2023-03-08T22:00:01.714Z,143833.13
2023-03-08T22:02:44.602Z,143912.88
2023-03-08T22:05:13.316Z,143946.69
2023-03-08T22:07:41.175Z,143961.25
2023-03-08T22:10:10.845Z,143973.31
2023-03-08T22:12:38.224Z,143996.25
2023-03-08T22:15:06.112Z,143946.69
2023-03-08T22:17:33.135Z,144031.34
2023-03-08T22:20:00.139Z,144002.34
2023-03-08T22:22:27.213Z,143968.47
2023-03-08T22:24:54.204Z,143934.66
2023-03-08T22:27:23.635Z,143967.28
2023-03-08T22:29:51.526Z,143963.63
2023-03-08T22:32:18.698Z,143951.53
2023-03-08T22:34:45.809Z,143941.88
2023-03-08T22:37:12.806Z,143922.56
2023-03-08T22:39:40.240Z,143927.38
2023-03-08T22:42:08.200Z,143931.00
2023-03-08T22:44:35.269Z,143899.59
2023-03-08T22:47:02.399Z,143955.16
2023-03-08T22:49:29.428Z,143946.69
2023-03-08T22:51:56.446Z,143888.75
2023-03-08T22:54:23.826Z,143946.69
2023-03-08T22:56:50.939Z,143953.97
2023-03-08T22:59:18.367Z,143963.63
2023-03-08T23:01:45.478Z,143953.97
2023-03-08T23:04:13.381Z,143915.28
2023-03-08T23:06:40.649Z,143970.91
2023-03-08T23:09:10.217Z,143992.63
2023-03-08T23:11:38.140Z,143900.78
2023-03-08T23:14:06.555Z,143970.91
2023-03-08T23:16:35.576Z,144005.94
2023-03-08T23:19:02.726Z,144033.78
2023-03-08T23:21:31.779Z,144024.06
2023-03-08T23:23:59.603Z,144050.66
2023-03-08T23:26:28.257Z,144009.56
2023-03-08T23:28:57.727Z,144004.72
2023-03-08T23:31:27.850Z,144005.94
2023-03-08T23:33:56.805Z,143986.59
2023-03-08T23:36:25.886Z,144045.81
2023-03-08T23:38:53.263Z,144041.00
2023-03-08T23:41:20.292Z,144057.94
2023-03-08T23:43:47.576Z,144080.91
2023-03-08T23:46:19.610Z,144062.78
2023-03-08T23:48:47.667Z,144032.53
2023-03-08T23:51:20.121Z,144020.47
2023-03-08T23:53:52.129Z,144013.19
2023-03-08T23:56:30.054Z,144003.53
2023-03-08T23:58:59.344Z,143921.34
